createdAt,value
2019-05-06T00:01:40.886Z,42.34
2019-05-06T00:04:13.973Z,42.47
2019-05-06T00:06:44.903Z,42.55
2019-05-06T00:09:16.095Z,42.64
2019-05-06T00:11:47.283Z,42.55
2019-05-06T00:14:18.430Z,42.67
2019-05-06T00:16:49.593Z,42.64
2019-05-06T00:19:20.772Z,42.74
2019-05-06T00:21:53.992Z,42.82
2019-05-06T00:24:27.045Z,42.87
2019-05-06T00:27:08.998Z,42.81
2019-05-06T00:29:40.258Z,42.87
2019-05-06T00:32:11.448Z,42.83
2019-05-06T00:34:43.612Z,42.81
2019-05-06T00:37:16.026Z,42.87
2019-05-06T00:39:55.703Z,42.86
2019-05-06T00:42:34.861Z,42.92
2019-05-06T00:45:07.057Z,42.98
2019-05-06T00:47:38.304Z,42.93
2019-05-06T00:50:09.738Z,42.90
2019-05-06T00:52:40.907Z,42.90
2019-05-06T00:55:13.701Z,42.91
2019-05-06T00:57:44.928Z,42.89
2019-05-06T01:00:18.595Z,42.96
2019-05-06T01:02:49.765Z,43.12
2019-05-06T01:05:20.955Z,43.19
2019-05-06T01:07:54.706Z,43.30
2019-05-06T01:10:25.150Z,43.27
2019-05-06T01:13:24.560Z,43.27
2019-05-06T01:15:55.685Z,43.36
2019-05-06T01:18:26.856Z,43.51
2019-05-06T01:21:10.119Z,43.59
2019-05-06T01:23:44.804Z,43.58
2019-05-06T01:26:16.626Z,43.71
2019-05-06T01:28:47.919Z,43.78
2019-05-06T01:31:19.148Z,43.77
2019-05-06T01:33:50.297Z,43.97
2019-05-06T01:36:21.529Z,43.91
2019-05-06T01:39:21.722Z,43.90
2019-05-06T01:41:58.918Z,44.00
2019-05-06T01:44:30.106Z,43.97
2019-05-06T01:47:01.247Z,43.99
2019-05-06T01:49:33.999Z,44.22
2019-05-06T01:52:05.266Z,44.19
2019-05-06T01:54:36.510Z,44.21
2019-05-06T01:57:07.652Z,44.39
2019-05-06T01:59:38.792Z,44.48
2019-05-06T02:02:09.965Z,44.66
2019-05-06T02:04:41.134Z,44.54
2019-05-06T02:07:14.314Z,44.88
2019-05-06T02:09:45.190Z,44.77
2019-05-06T02:12:16.352Z,44.74
2019-05-06T02:14:47.574Z,44.83
2019-05-06T02:17:18.758Z,44.99
2019-05-06T02:19:49.996Z,44.92
2019-05-06T02:22:35.380Z,44.92
2019-05-06T02:25:17.123Z,45.07
2019-05-06T02:27:48.319Z,45.05
2019-05-06T02:30:38.588Z,45.30
2019-05-06T02:33:35.374Z,45.59
2019-05-06T02:36:21.737Z,45.72
2019-05-06T02:38:55.785Z,45.65
2019-05-06T02:41:25.808Z,45.69
2019-05-06T02:43:56.983Z,45.63
2019-05-06T02:46:28.190Z,45.67
2019-05-06T02:49:23.737Z,46.05
2019-05-06T02:51:54.206Z,46.01
2019-05-06T02:54:25.406Z,45.98
2019-05-06T02:56:56.631Z,46.16
2019-05-06T02:59:27.836Z,46.39
2019-05-06T03:01:59.047Z,46.37
2019-05-06T03:04:33.072Z,46.22
2019-05-06T03:07:03.836Z,46.29
2019-05-06T03:09:35.108Z,46.29
2019-05-06T03:12:06.270Z,46.63
2019-05-06T03:14:37.451Z,46.39
2019-05-06T03:17:08.639Z,46.62
2019-05-06T03:19:45.758Z,46.69
2019-05-06T03:22:34.137Z,46.65
2019-05-06T03:25:13.575Z,46.59
2019-05-06T03:27:46.923Z,46.48
2019-05-06T03:30:17.723Z,46.56
2019-05-06T03:33:28.200Z,46.45
2019-05-06T03:35:36.168Z,46.85
2019-05-06T03:37:54.710Z,46.88
2019-05-06T03:40:25.878Z,46.74
2019-05-06T03:42:57.076Z,47.05
2019-05-06T03:45:49.692Z,46.99
2019-05-06T03:48:25.829Z,46.95
2019-05-06T03:50:57.091Z,47.05
2019-05-06T03:53:33.336Z,47.43
2019-05-06T03:56:03.943Z,47.37
2019-05-06T03:58:37.577Z,47.54
2019-05-06T04:01:08.807Z,47.58
2019-05-06T04:03:47.466Z,47.73
2019-05-06T04:06:14.500Z,47.78
2019-05-06T04:08:46.658Z,47.86
2019-05-06T04:11:18.838Z,48.02
2019-05-06T04:13:53.199Z,47.92
2019-05-06T04:16:45.108Z,48.07
2019-05-06T04:19:24.456Z,48.16
2019-05-06T04:22:23.386Z,47.93
2019-05-06T04:25:13.773Z,48.28
2019-05-06T04:27:58.286Z,48.34
2019-05-06T04:30:29.522Z,48.24
2019-05-06T04:33:03.253Z,48.23
2019-05-06T04:35:34.092Z,48.41
2019-05-06T04:38:05.408Z,48.65
2019-05-06T04:40:36.737Z,48.74
2019-05-06T04:43:08.023Z,48.85
2019-05-06T04:45:39.377Z,48.77
2019-05-06T04:48:13.661Z,48.51
2019-05-06T04:50:44.502Z,48.85
2019-05-06T04:53:16.049Z,48.15
2019-05-06T04:55:47.285Z,48.40
2019-05-06T04:58:18.634Z,48.40
2019-05-06T05:00:53.041Z,48.58
2019-05-06T05:03:25.883Z,48.69
2019-05-06T05:05:57.072Z,49.05
2019-05-06T05:08:37.853Z,48.54
2019-05-06T05:11:26.148Z,48.42
2019-05-06T05:14:13.453Z,48.57
2019-05-06T05:17:08.113Z,48.67
2019-05-06T05:19:40.023Z,48.67
2019-05-06T05:22:12.473Z,48.71
2019-05-06T05:24:43.926Z,48.73
2019-05-06T05:27:15.162Z,48.29
2019-05-06T05:29:46.474Z,48.20
2019-05-06T05:32:17.722Z,48.87
2019-05-06T05:34:48.979Z,48.67
2019-05-06T05:37:22.601Z,48.76
2019-05-06T05:39:53.590Z,48.73
2019-05-06T05:42:34.174Z,48.76
2019-05-06T05:45:05.486Z,48.50
2019-05-06T05:47:36.697Z,48.66
2019-05-06T05:50:22.681Z,48.49
2019-05-06T05:52:53.603Z,48.49
2019-05-06T05:55:24.788Z,48.79
2019-05-06T05:57:56.000Z,48.84
2019-05-06T06:00:28.935Z,48.53
2019-05-06T06:03:00.090Z,48.60
2019-05-06T06:05:32.973Z,48.85
2019-05-06T06:08:04.435Z,48.74
2019-05-06T06:11:00.763Z,48.62
2019-05-06T06:13:33.536Z,48.46
2019-05-06T06:16:23.262Z,48.57
2019-05-06T06:19:05.488Z,48.46
2019-05-06T06:21:43.131Z,48.31
2019-05-06T06:24:20.135Z,48.32
2019-05-06T06:26:53.573Z,48.29
2019-05-06T06:29:24.791Z,48.13
2019-05-06T06:32:33.346Z,48.14
2019-05-06T06:35:26.512Z,47.73
2019-05-06T06:38:13.574Z,47.64
2019-05-06T06:40:44.772Z,47.87
2019-05-06T06:43:19.954Z,47.65
2019-05-06T06:45:53.111Z,47.53
2019-05-06T06:48:24.007Z,47.48
2019-05-06T06:50:55.196Z,47.56
2019-05-06T06:53:26.607Z,47.51
2019-05-06T06:56:16.760Z,47.20
2019-05-06T06:59:05.613Z,47.12
2019-05-06T07:01:45.907Z,47.21
2019-05-06T07:04:23.468Z,47.00
2019-05-06T07:06:56.225Z,46.87
2019-05-06T07:09:29.704Z,47.23
2019-05-06T07:12:00.474Z,46.87
2019-05-06T07:14:35.834Z,46.99
2019-05-06T07:17:05.535Z,47.32
2019-05-06T07:19:42.276Z,47.02
2019-05-06T07:22:13.475Z,47.36
2019-05-06T07:24:44.606Z,47.38
2019-05-06T07:27:20.188Z,47.25
2019-05-06T07:29:52.226Z,47.40
2019-05-06T07:32:23.679Z,47.28
2019-05-06T07:34:54.858Z,47.20
2019-05-06T07:37:26.029Z,47.10
2019-05-06T07:39:57.256Z,46.89
2019-05-06T07:42:35.221Z,47.13
2019-05-06T07:45:28.748Z,47.18
2019-05-06T07:48:05.869Z,47.03
2019-05-06T07:50:37.030Z,47.21
2019-05-06T07:53:08.880Z,47.20
2019-05-06T07:55:42.435Z,47.22
2019-05-06T07:58:14.062Z,47.05
2019-05-06T08:00:45.200Z,46.94
2019-05-06T08:03:18.025Z,47.17
2019-05-06T08:05:55.729Z,47.04
2019-05-06T08:08:22.999Z,46.96
2019-05-06T08:10:54.425Z,46.69
2019-05-06T08:13:25.584Z,46.37
2019-05-06T08:15:56.760Z,46.25
2019-05-06T08:18:27.966Z,46.10
2019-05-06T08:21:02.498Z,45.95
2019-05-06T08:23:42.849Z,46.11
2019-05-06T08:26:17.587Z,45.94
2019-05-06T08:28:47.099Z,45.80
2019-05-06T08:31:22.194Z,45.64
2019-05-06T08:33:52.943Z,45.50
2019-05-06T08:36:54.422Z,45.70
2019-05-06T08:39:25.692Z,45.76
2019-05-06T08:41:56.897Z,45.73
2019-05-06T08:44:28.129Z,45.63
2019-05-06T08:46:59.360Z,45.72
2019-05-06T08:49:49.522Z,45.59
2019-05-06T08:52:21.772Z,45.52
2019-05-06T08:54:55.010Z,45.24
2019-05-06T08:57:26.191Z,45.18
2019-05-06T08:59:57.511Z,44.90
2019-05-06T09:02:28.716Z,44.84
2019-05-06T09:04:59.917Z,44.83
2019-05-06T09:07:32.032Z,44.74
2019-05-06T09:10:03.352Z,44.42
2019-05-06T09:12:34.581Z,44.16
2019-05-06T09:15:06.065Z,44.09
2019-05-06T09:17:37.332Z,43.97
2019-05-06T09:20:08.638Z,43.85
2019-05-06T09:22:39.827Z,43.72
2019-05-06T09:25:12.878Z,43.68
2019-05-06T09:28:15.204Z,43.75
2019-05-06T09:30:53.713Z,43.59
2019-05-06T09:33:33.020Z,43.65
2019-05-06T09:36:03.595Z,43.60
2019-05-06T09:38:34.813Z,43.64
2019-05-06T09:41:06.087Z,43.68
2019-05-06T09:43:37.302Z,43.63
2019-05-06T09:46:08.502Z,43.56
2019-05-06T09:48:57.539Z,43.55
2019-05-06T09:51:28.874Z,43.60
2019-05-06T09:54:12.873Z,43.42
2019-05-06T09:56:53.296Z,43.20
2019-05-06T09:59:24.666Z,43.01
2019-05-06T10:01:55.898Z,42.76
2019-05-06T10:04:27.105Z,42.70
2019-05-06T10:07:00.034Z,42.52
2019-05-06T10:09:32.643Z,42.52
2019-05-06T10:12:03.935Z,42.42
2019-05-06T10:14:35.193Z,42.13
2019-05-06T10:17:06.433Z,42.08
2019-05-06T10:19:37.841Z,41.78
2019-05-06T10:22:09.187Z,41.61
2019-05-06T10:24:42.451Z,41.54
2019-05-06T10:27:13.363Z,41.29
2019-05-06T10:29:52.248Z,41.01
2019-05-06T10:32:37.999Z,41.20
2019-05-06T10:35:09.760Z,41.22
2019-05-06T10:38:24.575Z,41.34
2019-05-06T10:41:03.914Z,41.15
2019-05-06T10:44:08.119Z,41.09
2019-05-06T10:46:39.329Z,41.03
2019-05-06T10:49:13.066Z,40.93
2019-05-06T10:51:49.134Z,40.90
2019-05-06T10:54:22.760Z,40.71
2019-05-06T10:57:02.245Z,40.60
2019-05-06T10:59:34.702Z,40.79
2019-05-06T11:02:26.590Z,40.82
2019-05-06T11:04:57.948Z,40.81
2019-05-06T11:07:34.523Z,40.64
2019-05-06T11:10:03.088Z,40.66
2019-05-06T11:12:34.349Z,40.46
2019-05-06T11:15:06.693Z,40.39
2019-05-06T11:17:39.048Z,40.33
2019-05-06T11:20:13.710Z,40.10
2019-05-06T11:22:43.820Z,40.06
2019-05-06T11:25:15.211Z,39.83
2019-05-06T11:27:46.387Z,39.72
2019-05-06T11:30:45.784Z,38.95
2019-05-06T11:33:37.160Z,39.61
2019-05-06T11:36:15.226Z,39.51
2019-05-06T11:38:48.359Z,39.59
2019-05-06T11:41:18.475Z,39.60
2019-05-06T11:43:52.112Z,39.60
2019-05-06T11:46:22.967Z,39.51
2019-05-06T11:48:54.236Z,39.37
2019-05-06T11:51:27.130Z,39.35
2019-05-06T11:53:58.289Z,39.34
2019-05-06T11:56:29.577Z,39.40
2019-05-06T11:59:02.493Z,39.43
2019-05-06T12:01:38.711Z,39.53
2019-05-06T12:04:09.919Z,39.63
2019-05-06T12:06:42.328Z,39.52
2019-05-06T12:09:16.819Z,39.52
2019-05-06T12:11:46.576Z,39.54
2019-05-06T12:14:17.799Z,39.64
2019-05-06T12:16:49.101Z,39.63
2019-05-06T12:19:22.325Z,39.63
2019-05-06T12:21:53.368Z,39.57
2019-05-06T12:24:24.557Z,39.38
2019-05-06T12:26:55.784Z,39.48
2019-05-06T12:29:26.999Z,39.42
2019-05-06T12:32:06.507Z,39.43
2019-05-06T12:34:37.740Z,39.26
2019-05-06T12:37:12.111Z,39.20
2019-05-06T12:39:48.843Z,39.04
2019-05-06T12:42:35.097Z,38.97
2019-05-06T12:45:15.264Z,38.46
2019-05-06T12:48:13.110Z,38.32
2019-05-06T12:50:44.360Z,37.91
2019-05-06T12:53:15.563Z,37.70
2019-05-06T12:55:46.769Z,37.49
2019-05-06T12:58:21.038Z,37.34
2019-05-06T13:00:53.921Z,37.38
2019-05-06T13:03:43.271Z,37.46
2019-05-06T13:06:14.328Z,37.54
2019-05-06T13:08:57.393Z,37.61
2019-05-06T13:11:18.664Z,37.79
2019-05-06T13:13:57.476Z,37.67
2019-05-06T13:16:22.990Z,37.49
2019-05-06T13:18:55.180Z,37.40
2019-05-06T13:21:26.312Z,37.31
2019-05-06T13:24:04.363Z,37.40
2019-05-06T13:26:35.251Z,37.24
2019-05-06T13:29:12.983Z,37.11
2019-05-06T13:31:44.291Z,37.18
2019-05-06T13:34:17.959Z,37.16
2019-05-06T13:36:49.992Z,37.00
2019-05-06T13:39:23.797Z,36.89
2019-05-06T13:41:54.154Z,36.79
2019-05-06T13:44:25.438Z,36.79
2019-05-06T13:46:56.837Z,36.66
2019-05-06T13:49:52.231Z,36.62
2019-05-06T13:52:27.300Z,36.65
2019-05-06T13:54:58.547Z,36.55
2019-05-06T13:57:31.937Z,36.50
2019-05-06T14:00:03.236Z,36.55
2019-05-06T14:02:54.024Z,36.08
2019-05-06T14:05:25.267Z,35.67
2019-05-06T14:07:56.635Z,35.17
2019-05-06T14:10:27.783Z,34.72
2019-05-06T14:12:59.095Z,34.35
2019-05-06T14:15:32.401Z,33.86
2019-05-06T14:18:03.309Z,33.50
2019-05-06T14:20:34.493Z,33.34
2019-05-06T14:23:05.719Z,33.48
2019-05-06T14:25:55.438Z,33.70
2019-05-06T14:28:32.592Z,33.88
2019-05-06T14:31:10.350Z,34.16
2019-05-06T14:33:42.834Z,34.47
2019-05-06T14:36:14.615Z,34.68
2019-05-06T14:38:46.005Z,34.87
2019-05-06T14:41:26.121Z,35.14
2019-05-06T14:43:53.080Z,35.37
2019-05-06T14:46:24.446Z,35.49
2019-05-06T14:48:55.629Z,35.69
2019-05-06T14:51:26.831Z,35.93
2019-05-06T14:53:58.063Z,36.18
2019-05-06T14:56:39.037Z,36.31
2019-05-06T14:59:12.461Z,36.42
2019-05-06T15:01:45.447Z,36.51
2019-05-06T15:04:16.193Z,36.65
2019-05-06T15:06:47.458Z,36.66
2019-05-06T15:09:18.684Z,36.72
2019-05-06T15:11:49.982Z,36.72
2019-05-06T15:14:22.680Z,36.74
2019-05-06T15:16:54.079Z,36.73
2019-05-06T15:19:25.353Z,36.80
2019-05-06T15:21:56.489Z,36.85
2019-05-06T15:24:27.796Z,36.86
2019-05-06T15:26:59.022Z,36.84
2019-05-06T15:29:30.234Z,36.89
2019-05-06T15:32:13.006Z,36.93
2019-05-06T15:35:22.285Z,36.92
2019-05-06T15:38:02.424Z,36.94
2019-05-06T15:40:36.544Z,36.92
2019-05-06T15:43:06.577Z,36.89
2019-05-06T15:45:37.826Z,36.94
2019-05-06T15:48:09.177Z,37.09
2019-05-06T15:50:44.861Z,37.14
2019-05-06T15:53:13.482Z,37.21
2019-05-06T15:55:44.695Z,37.21
2019-05-06T15:58:15.879Z,37.20
2019-05-06T16:00:47.114Z,37.27
2019-05-06T16:03:22.607Z,37.31
2019-05-06T16:05:55.230Z,37.31
2019-05-06T16:08:27.094Z,37.30
2019-05-06T16:10:59.118Z,37.28
2019-05-06T16:13:30.427Z,37.26
2019-05-06T16:16:02.994Z,37.26
2019-05-06T16:18:34.640Z,37.33
2019-05-06T16:21:05.882Z,37.42
2019-05-06T16:23:44.934Z,37.36
2019-05-06T16:26:16.330Z,37.38
2019-05-06T16:28:47.542Z,37.36
2019-05-06T16:31:18.710Z,37.38
2019-05-06T16:33:52.265Z,37.39
2019-05-06T16:36:23.957Z,37.44
2019-05-06T16:38:55.181Z,37.46
2019-05-06T16:41:26.373Z,37.46
2019-05-06T16:43:57.555Z,37.55
2019-05-06T16:46:28.819Z,37.56
2019-05-06T16:49:02.234Z,37.52
2019-05-06T16:51:32.970Z,37.55
2019-05-06T16:54:04.120Z,37.57
2019-05-06T16:56:44.633Z,37.65
2019-05-06T16:59:15.966Z,37.68
2019-05-06T17:01:47.237Z,37.84
2019-05-06T17:04:26.247Z,38.12
2019-05-06T17:06:57.410Z,38.41
2019-05-06T17:09:28.639Z,38.59
2019-05-06T17:11:59.811Z,38.79
2019-05-06T17:14:32.157Z,39.15
2019-05-06T17:17:05.106Z,39.56
2019-05-06T17:19:36.324Z,39.70
2019-05-06T17:22:08.733Z,40.00
2019-05-06T17:24:42.053Z,40.18
2019-05-06T17:27:12.910Z,40.46
2019-05-06T17:30:12.814Z,40.64
2019-05-06T17:32:47.364Z,40.81
2019-05-06T17:35:18.798Z,40.98
2019-05-06T17:37:56.668Z,41.27
2019-05-06T17:40:28.988Z,41.54
2019-05-06T17:43:02.416Z,41.70
2019-05-06T17:46:04.888Z,41.86
2019-05-06T17:48:56.288Z,41.97
2019-05-06T17:51:37.297Z,42.17
2019-05-06T17:54:07.098Z,42.28
2019-05-06T17:56:38.573Z,42.42
2019-05-06T17:59:09.956Z,42.54
2019-05-06T18:01:44.798Z,42.64
2019-05-06T18:04:16.092Z,42.67
2019-05-06T18:06:47.569Z,42.78
2019-05-06T18:09:18.923Z,42.79
2019-05-06T18:11:58.385Z,42.82
2019-05-06T18:14:24.039Z,42.87
2019-05-06T18:16:55.357Z,42.87
2019-05-06T18:19:26.726Z,42.94
2019-05-06T18:21:58.083Z,43.05
2019-05-06T18:24:29.953Z,43.10
2019-05-06T18:27:02.662Z,43.22
2019-05-06T18:29:38.044Z,43.26
2019-05-06T18:32:09.299Z,43.43
2019-05-06T18:34:40.593Z,43.46
2019-05-06T18:37:12.715Z,43.48
2019-05-06T18:39:44.303Z,43.51
2019-05-06T18:42:20.153Z,43.43
2019-05-06T18:44:48.562Z,43.38
2019-05-06T18:47:20.901Z,43.38
2019-05-06T18:49:52.496Z,43.31
2019-05-06T18:52:24.012Z,43.34
2019-05-06T18:54:55.190Z,43.30
2019-05-06T18:57:26.557Z,43.27
2019-05-06T18:59:57.777Z,43.34
2019-05-06T19:02:29.112Z,43.28
2019-05-06T19:05:06.969Z,43.28
2019-05-06T19:07:38.191Z,43.29
2019-05-06T19:10:15.256Z,43.29
2019-05-06T19:12:46.561Z,43.29
2019-05-06T19:15:17.751Z,43.22
2019-05-06T19:17:52.610Z,43.21
2019-05-06T19:20:26.161Z,43.23
2019-05-06T19:22:57.717Z,43.18
2019-05-06T19:25:28.878Z,43.16
2019-05-06T19:28:02.224Z,43.17
2019-05-06T19:30:33.810Z,43.21
2019-05-06T19:33:07.061Z,43.21
2019-05-06T19:35:38.717Z,43.36
2019-05-06T19:38:12.357Z,43.57
2019-05-06T19:40:43.286Z,43.65
2019-05-06T19:43:14.636Z,43.64
2019-05-06T19:45:45.966Z,43.79
2019-05-06T19:48:17.372Z,43.76
2019-05-06T19:50:49.631Z,43.81
2019-05-06T19:53:23.649Z,43.83
2019-05-06T19:55:56.069Z,43.81
2019-05-06T19:58:27.286Z,44.00
2019-05-06T20:00:58.693Z,44.01
2019-05-06T20:03:32.706Z,44.21
2019-05-06T20:06:22.948Z,44.17
2019-05-06T20:09:07.887Z,44.19
2019-05-06T20:11:42.587Z,44.40
2019-05-06T20:14:13.950Z,44.43
2019-05-06T20:16:45.133Z,44.40
2019-05-06T20:19:28.105Z,44.33
2019-05-06T20:21:49.221Z,44.38
2019-05-06T20:24:22.464Z,44.48
2019-05-06T20:26:53.350Z,44.45
2019-05-06T20:29:24.670Z,44.62
2019-05-06T20:31:56.007Z,44.56
2019-05-06T20:34:27.250Z,44.63
2019-05-06T20:36:58.533Z,44.73
2019-05-06T20:39:29.820Z,44.83
2019-05-06T20:42:02.896Z,44.73
2019-05-06T20:44:33.946Z,44.94
2019-05-06T20:47:05.077Z,44.80
2019-05-06T20:49:36.359Z,44.76
2019-05-06T20:52:07.485Z,44.81
2019-05-06T20:54:38.673Z,44.96
2019-05-06T20:57:12.106Z,44.91
2019-05-06T20:59:42.695Z,44.96
2019-05-06T21:02:13.970Z,45.13
2019-05-06T21:04:45.198Z,45.07
2019-05-06T21:07:16.449Z,45.28
2019-05-06T21:09:47.635Z,45.49
2019-05-06T21:12:18.954Z,45.41
2019-05-06T21:14:50.132Z,45.72
2019-05-06T21:17:22.896Z,45.52
2019-05-06T21:19:54.259Z,45.63
2019-05-06T21:22:25.473Z,45.61
2019-05-06T21:24:56.733Z,45.92
2019-05-06T21:27:27.937Z,45.82
2019-05-06T21:29:59.104Z,45.78
2019-05-06T21:32:30.333Z,45.81
2019-05-06T21:35:02.175Z,45.97
2019-05-06T21:37:34.530Z,45.79
2019-05-06T21:40:05.912Z,45.86
2019-05-06T21:42:37.260Z,45.97
2019-05-06T21:45:08.497Z,46.23
2019-05-06T21:47:39.687Z,46.20
2019-05-06T21:50:12.060Z,46.52
2019-05-06T21:52:43.378Z,46.53
2019-05-06T21:55:16.253Z,46.83
2019-05-06T21:57:47.569Z,46.73
2019-05-06T22:00:19.276Z,46.81
2019-05-06T22:02:53.053Z,46.73
2019-05-06T22:05:25.289Z,46.86
2019-05-06T22:07:56.513Z,47.00
2019-05-06T22:10:27.688Z,47.07
2019-05-06T22:12:58.918Z,47.15
2019-05-06T22:15:32.280Z,47.09
2019-05-06T22:18:02.999Z,47.26
2019-05-06T22:20:53.219Z,47.39
2019-05-06T22:23:24.428Z,47.55
2019-05-06T22:26:08.539Z,47.58
2019-05-06T22:28:28.490Z,47.70
2019-05-06T22:30:59.721Z,48.00
2019-05-06T22:33:31.802Z,48.12
2019-05-06T22:36:03.157Z,48.22
2019-05-06T22:38:35.403Z,48.23
2019-05-06T22:41:06.600Z,48.11
2019-05-06T22:43:37.850Z,48.20
2019-05-06T22:46:09.111Z,48.61
2019-05-06T22:48:40.298Z,48.31
2019-05-06T22:51:12.360Z,48.48
2019-05-06T22:53:43.836Z,48.46
2019-05-06T22:56:15.676Z,48.64
2019-05-06T22:58:46.869Z,48.55
2019-05-06T23:01:36.362Z,48.54
2019-05-06T23:04:08.149Z,48.52
2019-05-06T23:06:39.422Z,48.75
2019-05-06T23:09:10.613Z,49.08
2019-05-06T23:11:42.448Z,49.33
2019-05-06T23:14:27.616Z,49.18
2019-05-06T23:16:46.826Z,49.09
2019-05-06T23:19:17.978Z,49.56
2019-05-06T23:21:49.164Z,49.29
2019-05-06T23:24:22.413Z,49.20
2019-05-06T23:26:54.764Z,49.47
2019-05-06T23:29:27.217Z,49.63
2019-05-06T23:31:58.608Z,49.53
2019-05-06T23:34:29.768Z,49.70
2019-05-06T23:37:25.203Z,49.75
2019-05-06T23:40:42.505Z,49.65
2019-05-06T23:43:49.423Z,49.93
2019-05-06T23:46:56.648Z,50.01
2019-05-06T23:50:03.940Z,50.18
2019-05-06T23:53:12.550Z,50.13
2019-05-06T23:56:20.140Z,50.36
2019-05-06T23:58:52.378Z,50.43
